sensor_id;sensor_type;location;lat;lon;timestamp;P1;durP1;ratioP1;P2;durP2;ratioP2
23288;SDS011;11813;50.834;4.280;2023-02-03T00:01:46;10.43;;;4.47;;
23288;SDS011;11813;50.834;4.280;2023-02-03T00:04:11;13.30;;;4.00;;
23288;SDS011;11813;50.834;4.280;2023-02-03T00:06:37;12.00;;;3.63;;
23288;SDS011;11813;50.834;4.280;2023-02-03T00:09:03;8.40;;;3.17;;
23288;SDS011;11813;50.834;4.280;2023-02-03T00:11:30;14.23;;;4.47;;
23288;SDS011;11813;50.834;4.280;2023-02-03T00:13:55;11.83;;;3.93;;
23288;SDS011;11813;50.834;4.280;2023-02-03T00:16:21;11.67;;;3.43;;
23288;SDS011;11813;50.834;4.280;2023-02-03T00:18:47;15.17;;;4.83;;
23288;SDS011;11813;50.834;4.280;2023-02-03T00:21:12;10.43;;;2.97;;
23288;SDS011;11813;50.834;4.280;2023-02-03T00:23:39;13.77;;;3.73;;
23288;SDS011;11813;50.834;4.280;2023-02-03T00:26:09;14.17;;;3.87;;
23288;SDS011;11813;50.834;4.280;2023-02-03T00:28:36;10.00;;;3.33;;
23288;SDS011;11813;50.834;4.280;2023-02-03T00:31:02;11.80;;;4.17;;
23288;SDS011;11813;50.834;4.280;2023-02-03T00:33:27;13.70;;;4.30;;
23288;SDS011;11813;50.834;4.280;2023-02-03T00:35:53;12.03;;;3.33;;
23288;SDS011;11813;50.834;4.280;2023-02-03T00:38:19;11.70;;;3.40;;
23288;SDS011;11813;50.834;4.280;2023-02-03T00:40:51;8.77;;;3.17;;
23288;SDS011;11813;50.834;4.280;2023-02-03T00:43:17;8.77;;;2.47;;
23288;SDS011;11813;50.834;4.280;2023-02-03T00:45:43;7.27;;;2.73;;
23288;SDS011;11813;50.834;4.280;2023-02-03T00:48:09;12.07;;;2.93;;
23288;SDS011;11813;50.834;4.280;2023-02-03T00:50:34;13.23;;;2.87;;
23288;SDS011;11813;50.834;4.280;2023-02-03T00:53:00;11.83;;;3.00;;
23288;SDS011;11813;50.834;4.280;2023-02-03T00:55:25;15.97;;;3.50;;
23288;SDS011;11813;50.834;4.280;2023-02-03T00:57:51;11.07;;;3.10;;
23288;SDS011;11813;50.834;4.280;2023-02-03T01:00:17;11.20;;;3.17;;
23288;SDS011;11813;50.834;4.280;2023-02-03T01:02:44;9.13;;;3.40;;
23288;SDS011;11813;50.834;4.280;2023-02-03T01:05:09;16.77;;;3.50;;
23288;SDS011;11813;50.834;4.280;2023-02-03T01:07:35;9.63;;;3.13;;
23288;SDS011;11813;50.834;4.280;2023-02-03T01:10:01;9.70;;;3.33;;
23288;SDS011;11813;50.834;4.280;2023-02-03T01:12:28;14.83;;;3.73;;
23288;SDS011;11813;50.834;4.280;2023-02-03T01:14:54;11.20;;;3.10;;
23288;SDS011;11813;50.834;4.280;2023-02-03T01:17:20;13.53;;;2.90;;
23288;SDS011;11813;50.834;4.280;2023-02-03T01:19:45;12.83;;;3.00;;
23288;SDS011;11813;50.834;4.280;2023-02-03T01:22:11;15.80;;;2.93;;
23288;SDS011;11813;50.834;4.280;2023-02-03T01:24:36;7.90;;;2.83;;
23288;SDS011;11813;50.834;4.280;2023-02-03T01:27:02;17.60;;;3.23;;
23288;SDS011;11813;50.834;4.280;2023-02-03T01:29:28;9.53;;;3.03;;
23288;SDS011;11813;50.834;4.280;2023-02-03T01:31:53;9.87;;;2.50;;
23288;SDS011;11813;50.834;4.280;2023-02-03T01:34:19;16.73;;;2.73;;
23288;SDS011;11813;50.834;4.280;2023-02-03T01:36:44;9.57;;;2.83;;
23288;SDS011;11813;50.834;4.280;2023-02-03T01:39:10;16.00;;;3.17;;
23288;SDS011;11813;50.834;4.280;2023-02-03T01:41:37;6.87;;;2.13;;
23288;SDS011;11813;50.834;4.280;2023-02-03T01:47:00;12.60;;;2.40;;
23288;SDS011;11813;50.834;4.280;2023-02-03T01:49:28;8.03;;;2.47;;
23288;SDS011;11813;50.834;4.280;2023-02-03T01:51:58;15.97;;;2.50;;
23288;SDS011;11813;50.834;4.280;2023-02-03T01:54:28;9.47;;;2.27;;
23288;SDS011;11813;50.834;4.280;2023-02-03T01:57:00;10.70;;;2.53;;
23288;SDS011;11813;50.834;4.280;2023-02-03T01:59:34;10.07;;;2.23;;
23288;SDS011;11813;50.834;4.280;2023-02-03T02:02:00;13.03;;;2.53;;
23288;SDS011;11813;50.834;4.280;2023-02-03T02:04:30;6.37;;;2.07;;
23288;SDS011;11813;50.834;4.280;2023-02-03T02:07:04;13.30;;;2.70;;
23288;SDS011;11813;50.834;4.280;2023-02-03T02:09:30;11.60;;;3.20;;
23288;SDS011;11813;50.834;4.280;2023-02-03T02:11:56;14.30;;;2.47;;
23288;SDS011;11813;50.834;4.280;2023-02-03T02:14:22;10.83;;;2.63;;
23288;SDS011;11813;50.834;4.280;2023-02-03T02:19:30;11.13;;;2.27;;
23288;SDS011;11813;50.834;4.280;2023-02-03T02:22:29;12.30;;;2.70;;
23288;SDS011;11813;50.834;4.280;2023-02-03T02:41:25;10.00;;;1.97;;
23288;SDS011;11813;50.834;4.280;2023-02-03T02:46:42;9.90;;;2.63;;
23288;SDS011;11813;50.834;4.280;2023-02-03T02:49:15;9.53;;;2.57;;
23288;SDS011;11813;50.834;4.280;2023-02-03T02:51:53;7.70;;;2.60;;
23288;SDS011;11813;50.834;4.280;2023-02-03T02:54:22;7.73;;;2.10;;
23288;SDS011;11813;50.834;4.280;2023-02-03T02:56:50;13.97;;;2.83;;
23288;SDS011;11813;50.834;4.280;2023-02-03T02:59:19;14.20;;;2.80;;
23288;SDS011;11813;50.834;4.280;2023-02-03T03:01:45;10.70;;;2.40;;
23288;SDS011;11813;50.834;4.280;2023-02-03T03:04:11;15.53;;;2.53;;
23288;SDS011;11813;50.834;4.280;2023-02-03T03:09:11;10.10;;;2.40;;
23288;SDS011;11813;50.834;4.280;2023-02-03T03:11:55;10.73;;;2.87;;
23288;SDS011;11813;50.834;4.280;2023-02-03T03:14:25;9.23;;;2.10;;
23288;SDS011;11813;50.834;4.280;2023-02-03T03:16:58;16.03;;;2.87;;
23288;SDS011;11813;50.834;4.280;2023-02-03T03:19:28;7.60;;;1.83;;
23288;SDS011;11813;50.834;4.280;2023-02-03T03:22:00;5.27;;;2.10;;
23288;SDS011;11813;50.834;4.280;2023-02-03T03:24:30;13.30;;;2.33;;
23288;SDS011;11813;50.834;4.280;2023-02-03T03:30:04;6.93;;;1.83;;
23288;SDS011;11813;50.834;4.280;2023-02-03T03:32:34;6.83;;;2.20;;
23288;SDS011;11813;50.834;4.280;2023-02-03T03:35:00;5.73;;;1.67;;
23288;SDS011;11813;50.834;4.280;2023-02-03T03:37:37;7.43;;;1.93;;
23288;SDS011;11813;50.834;4.280;2023-02-03T03:40:15;7.87;;;1.63;;
23288;SDS011;11813;50.834;4.280;2023-02-03T03:48:15;11.87;;;2.17;;
23288;SDS011;11813;50.834;4.280;2023-02-03T03:50:52;8.53;;;2.03;;
23288;SDS011;11813;50.834;4.280;2023-02-03T03:53:22;10.37;;;2.00;;
23288;SDS011;11813;50.834;4.280;2023-02-03T03:55:50;8.33;;;2.03;;
23288;SDS011;11813;50.834;4.280;2023-02-03T03:58:28;11.50;;;2.30;;
23288;SDS011;11813;50.834;4.280;2023-02-03T04:00:56;5.13;;;1.93;;
23288;SDS011;11813;50.834;4.280;2023-02-03T04:03:27;9.97;;;2.07;;
23288;SDS011;11813;50.834;4.280;2023-02-03T04:05:59;6.90;;;2.33;;
23288;SDS011;11813;50.834;4.280;2023-02-03T04:08:25;4.87;;;1.90;;
23288;SDS011;11813;50.834;4.280;2023-02-03T04:10:51;7.93;;;1.60;;
23288;SDS011;11813;50.834;4.280;2023-02-03T04:13:16;7.27;;;1.83;;
23288;SDS011;11813;50.834;4.280;2023-02-03T04:15:44;7.63;;;1.57;;
23288;SDS011;11813;50.834;4.280;2023-02-03T04:18:11;7.43;;;2.00;;
23288;SDS011;11813;50.834;4.280;2023-02-03T04:20:38;7.57;;;2.20;;
23288;SDS011;11813;50.834;4.280;2023-02-03T04:23:03;9.93;;;1.53;;
23288;SDS011;11813;50.834;4.280;2023-02-03T04:25:29;7.07;;;1.70;;
23288;SDS011;11813;50.834;4.280;2023-02-03T04:27:55;8.63;;;2.20;;
23288;SDS011;11813;50.834;4.280;2023-02-03T04:30:20;6.13;;;1.50;;
23288;SDS011;11813;50.834;4.280;2023-02-03T04:32:46;3.57;;;1.27;;
23288;SDS011;11813;50.834;4.280;2023-02-03T04:35:12;6.60;;;1.87;;
23288;SDS011;11813;50.834;4.280;2023-02-03T04:37:38;7.00;;;1.80;;
23288;SDS011;11813;50.834;4.280;2023-02-03T04:40:04;5.90;;;1.37;;
23288;SDS011;11813;50.834;4.280;2023-02-03T04:42:31;5.73;;;1.40;;
23288;SDS011;11813;50.834;4.280;2023-02-03T04:44:56;8.03;;;1.93;;
23288;SDS011;11813;50.834;4.280;2023-02-03T04:47:22;6.07;;;1.60;;
23288;SDS011;11813;50.834;4.280;2023-02-03T04:49:47;4.77;;;1.50;;
23288;SDS011;11813;50.834;4.280;2023-02-03T04:52:13;7.23;;;1.57;;
23288;SDS011;11813;50.834;4.280;2023-02-03T04:54:39;3.90;;;1.40;;
23288;SDS011;11813;50.834;4.280;2023-02-03T04:57:05;8.63;;;1.47;;
23288;SDS011;11813;50.834;4.280;2023-02-03T04:59:31;7.33;;;1.80;;
23288;SDS011;11813;50.834;4.280;2023-02-03T05:01:57;10.47;;;2.00;;
23288;SDS011;11813;50.834;4.280;2023-02-03T05:04:22;8.80;;;2.07;;
23288;SDS011;11813;50.834;4.280;2023-02-03T05:06:48;4.53;;;0.90;;
23288;SDS011;11813;50.834;4.280;2023-02-03T05:09:14;7.93;;;1.77;;
23288;SDS011;11813;50.834;4.280;2023-02-03T05:11:40;5.77;;;2.00;;
23288;SDS011;11813;50.834;4.280;2023-02-03T05:14:05;7.83;;;1.67;;
23288;SDS011;11813;50.834;4.280;2023-02-03T05:16:31;7.77;;;1.73;;
23288;SDS011;11813;50.834;4.280;2023-02-03T05:18:57;3.10;;;1.50;;
23288;SDS011;11813;50.834;4.280;2023-02-03T05:21:22;7.00;;;1.93;;
23288;SDS011;11813;50.834;4.280;2023-02-03T05:23:48;10.33;;;2.57;;
23288;SDS011;11813;50.834;4.280;2023-02-03T05:26:13;7.77;;;1.40;;
23288;SDS011;11813;50.834;4.280;2023-02-03T05:28:39;5.43;;;1.73;;
23288;SDS011;11813;50.834;4.280;2023-02-03T05:31:05;7.03;;;1.53;;
23288;SDS011;11813;50.834;4.280;2023-02-03T05:33:30;5.00;;;1.33;;
23288;SDS011;11813;50.834;4.280;2023-02-03T05:35:56;4.27;;;1.30;;
23288;SDS011;11813;50.834;4.280;2023-02-03T05:38:22;7.77;;;1.57;;
23288;SDS011;11813;50.834;4.280;2023-02-03T05:40:49;8.90;;;2.03;;
23288;SDS011;11813;50.834;4.280;2023-02-03T05:43:34;3.63;;;1.50;;
23288;SDS011;11813;50.834;4.280;2023-02-03T05:46:00;3.10;;;1.20;;
23288;SDS011;11813;50.834;4.280;2023-02-03T05:48:26;8.43;;;1.90;;
23288;SDS011;11813;50.834;4.280;2023-02-03T05:50:53;10.37;;;1.50;;
23288;SDS011;11813;50.834;4.280;2023-02-03T05:53:18;6.23;;;1.57;;
23288;SDS011;11813;50.834;4.280;2023-02-03T05:55:44;7.17;;;1.90;;
23288;SDS011;11813;50.834;4.280;2023-02-03T05:58:10;6.27;;;1.60;;
23288;SDS011;11813;50.834;4.280;2023-02-03T06:00:35;6.73;;;2.13;;
23288;SDS011;11813;50.834;4.280;2023-02-03T06:03:01;5.47;;;1.50;;
23288;SDS011;11813;50.834;4.280;2023-02-03T06:05:28;5.73;;;1.50;;
23288;SDS011;11813;50.834;4.280;2023-02-03T06:07:54;8.47;;;2.20;;
23288;SDS011;11813;50.834;4.280;2023-02-03T06:10:20;7.30;;;2.10;;
23288;SDS011;11813;50.834;4.280;2023-02-03T06:12:46;4.83;;;1.50;;
23288;SDS011;11813;50.834;4.280;2023-02-03T06:15:12;5.87;;;1.67;;
23288;SDS011;11813;50.834;4.280;2023-02-03T06:17:38;7.70;;;1.70;;
23288;SDS011;11813;50.834;4.280;2023-02-03T06:20:04;6.33;;;1.73;;
23288;SDS011;11813;50.834;4.280;2023-02-03T06:22:32;8.67;;;2.00;;
23288;SDS011;11813;50.834;4.280;2023-02-03T06:24:58;7.57;;;2.20;;
23288;SDS011;11813;50.834;4.280;2023-02-03T06:27:23;7.07;;;1.80;;
23288;SDS011;11813;50.834;4.280;2023-02-03T06:29:49;6.10;;;1.47;;
23288;SDS011;11813;50.834;4.280;2023-02-03T06:32:15;7.37;;;2.20;;
23288;SDS011;11813;50.834;4.280;2023-02-03T06:34:41;8.17;;;1.90;;
23288;SDS011;11813;50.834;4.280;2023-02-03T06:37:06;6.53;;;1.40;;
23288;SDS011;11813;50.834;4.280;2023-02-03T06:39:32;4.00;;;1.53;;
23288;SDS011;11813;50.834;4.280;2023-02-03T06:41:57;7.43;;;3.77;;
23288;SDS011;11813;50.834;4.280;2023-02-03T06:44:23;6.47;;;1.70;;
23288;SDS011;11813;50.834;4.280;2023-02-03T06:46:49;6.97;;;1.60;;
23288;SDS011;11813;50.834;4.280;2023-02-03T06:49:15;10.90;;;2.67;;
23288;SDS011;11813;50.834;4.280;2023-02-03T06:51:41;6.00;;;2.20;;
23288;SDS011;11813;50.834;4.280;2023-02-03T06:54:08;3.67;;;1.50;;
23288;SDS011;11813;50.834;4.280;2023-02-03T06:56:34;4.27;;;1.60;;
23288;SDS011;11813;50.834;4.280;2023-02-03T06:59:00;4.50;;;1.90;;
23288;SDS011;11813;50.834;4.280;2023-02-03T07:01:26;8.07;;;2.20;;
23288;SDS011;11813;50.834;4.280;2023-02-03T07:03:53;9.10;;;1.83;;
23288;SDS011;11813;50.834;4.280;2023-02-03T07:06:22;3.77;;;1.83;;
23288;SDS011;11813;50.834;4.280;2023-02-03T07:08:48;4.60;;;1.77;;
23288;SDS011;11813;50.834;4.280;2023-02-03T07:11:13;11.10;;;2.10;;
23288;SDS011;11813;50.834;4.280;2023-02-03T07:13:39;5.40;;;1.57;;
23288;SDS011;11813;50.834;4.280;2023-02-03T07:16:04;7.33;;;1.90;;
23288;SDS011;11813;50.834;4.280;2023-02-03T07:18:30;9.87;;;1.73;;
23288;SDS011;11813;50.834;4.280;2023-02-03T07:20:56;4.00;;;1.67;;
23288;SDS011;11813;50.834;4.280;2023-02-03T07:23:22;7.70;;;1.90;;
23288;SDS011;11813;50.834;4.280;2023-02-03T07:25:47;7.80;;;1.80;;
23288;SDS011;11813;50.834;4.280;2023-02-03T07:28:13;7.63;;;2.23;;
23288;SDS011;11813;50.834;4.280;2023-02-03T07:30:38;7.17;;;2.27;;
23288;SDS011;11813;50.834;4.280;2023-02-03T07:33:04;5.77;;;1.97;;
23288;SDS011;11813;50.834;4.280;2023-02-03T07:35:30;7.03;;;1.87;;
23288;SDS011;11813;50.834;4.280;2023-02-03T07:37:55;8.73;;;2.23;;
23288;SDS011;11813;50.834;4.280;2023-02-03T07:40:21;8.87;;;2.20;;
23288;SDS011;11813;50.834;4.280;2023-02-03T07:42:47;5.30;;;1.97;;
23288;SDS011;11813;50.834;4.280;2023-02-03T07:45:13;7.97;;;2.13;;
23288;SDS011;11813;50.834;4.280;2023-02-03T07:47:41;3.77;;;1.67;;
23288;SDS011;11813;50.834;4.280;2023-02-03T07:50:08;5.67;;;2.73;;
23288;SDS011;11813;50.834;4.280;2023-02-03T07:52:34;8.53;;;3.00;;
23288;SDS011;11813;50.834;4.280;2023-02-03T07:55:00;9.23;;;2.47;;
23288;SDS011;11813;50.834;4.280;2023-02-03T07:57:26;6.57;;;2.10;;
23288;SDS011;11813;50.834;4.280;2023-02-03T07:59:51;7.43;;;2.57;;
23288;SDS011;11813;50.834;4.280;2023-02-03T08:02:17;10.80;;;2.60;;
23288;SDS011;11813;50.834;4.280;2023-02-03T08:04:43;3.67;;;1.40;;
23288;SDS011;11813;50.834;4.280;2023-02-03T08:07:08;8.70;;;2.43;;
23288;SDS011;11813;50.834;4.280;2023-02-03T08:09:34;5.67;;;1.90;;
23288;SDS011;11813;50.834;4.280;2023-02-03T08:11:59;8.37;;;2.37;;
23288;SDS011;11813;50.834;4.280;2023-02-03T08:14:25;7.90;;;1.93;;
23288;SDS011;11813;50.834;4.280;2023-02-03T08:16:50;7.77;;;2.13;;
23288;SDS011;11813;50.834;4.280;2023-02-03T08:19:16;10.43;;;2.73;;
23288;SDS011;11813;50.834;4.280;2023-02-03T08:21:41;12.13;;;2.70;;
23288;SDS011;11813;50.834;4.280;2023-02-03T08:24:07;8.83;;;3.37;;
23288;SDS011;11813;50.834;4.280;2023-02-03T08:26:34;6.33;;;1.70;;
23288;SDS011;11813;50.834;4.280;2023-02-03T08:29:00;5.57;;;1.83;;
23288;SDS011;11813;50.834;4.280;2023-02-03T08:31:25;7.90;;;2.23;;
23288;SDS011;11813;50.834;4.280;2023-02-03T08:33:51;9.60;;;1.90;;
23288;SDS011;11813;50.834;4.280;2023-02-03T08:36:17;9.83;;;2.37;;
23288;SDS011;11813;50.834;4.280;2023-02-03T08:38:42;10.67;;;2.10;;
23288;SDS011;11813;50.834;4.280;2023-02-03T08:41:11;5.07;;;1.83;;
23288;SDS011;11813;50.834;4.280;2023-02-03T08:43:38;5.97;;;1.93;;
23288;SDS011;11813;50.834;4.280;2023-02-03T08:46:05;4.73;;;1.70;;
23288;SDS011;11813;50.834;4.280;2023-02-03T08:48:31;8.63;;;2.07;;
23288;SDS011;11813;50.834;4.280;2023-02-03T08:50:57;7.00;;;2.33;;
23288;SDS011;11813;50.834;4.280;2023-02-03T08:53:23;5.87;;;1.70;;
23288;SDS011;11813;50.834;4.280;2023-02-03T08:55:49;3.60;;;1.50;;
23288;SDS011;11813;50.834;4.280;2023-02-03T08:58:15;4.03;;;1.60;;
23288;SDS011;11813;50.834;4.280;2023-02-03T09:00:41;7.50;;;1.60;;
23288;SDS011;11813;50.834;4.280;2023-02-03T09:03:07;6.47;;;1.83;;
23288;SDS011;11813;50.834;4.280;2023-02-03T09:05:33;3.53;;;1.27;;
23288;SDS011;11813;50.834;4.280;2023-02-03T09:07:58;6.70;;;1.70;;
23288;SDS011;11813;50.834;4.280;2023-02-03T09:10:24;7.67;;;1.67;;
23288;SDS011;11813;50.834;4.280;2023-02-03T09:12:49;4.83;;;1.70;;
23288;SDS011;11813;50.834;4.280;2023-02-03T09:15:15;6.00;;;1.67;;
23288;SDS011;11813;50.834;4.280;2023-02-03T09:17:41;7.83;;;1.57;;
23288;SDS011;11813;50.834;4.280;2023-02-03T09:20:06;7.47;;;1.93;;
23288;SDS011;11813;50.834;4.280;2023-02-03T09:22:33;8.53;;;2.83;;
23288;SDS011;11813;50.834;4.280;2023-02-03T09:24:58;8.03;;;2.13;;
23288;SDS011;11813;50.834;4.280;2023-02-03T09:27:24;4.80;;;1.70;;
23288;SDS011;11813;50.834;4.280;2023-02-03T09:29:49;7.73;;;2.00;;
23288;SDS011;11813;50.834;4.280;2023-02-03T09:32:15;5.17;;;1.80;;
23288;SDS011;11813;50.834;4.280;2023-02-03T09:34:40;9.23;;;2.53;;
23288;SDS011;11813;50.834;4.280;2023-02-03T09:37:06;4.87;;;1.67;;
23288;SDS011;11813;50.834;4.280;2023-02-03T09:39:32;13.70;;;2.33;;
23288;SDS011;11813;50.834;4.280;2023-02-03T09:47:33;8.93;;;2.20;;
23288;SDS011;11813;50.834;4.280;2023-02-03T09:50:02;5.80;;;1.97;;
23288;SDS011;11813;50.834;4.280;2023-02-03T09:52:34;4.53;;;2.57;;
23288;SDS011;11813;50.834;4.280;2023-02-03T09:55:13;6.60;;;2.07;;
23288;SDS011;11813;50.834;4.280;2023-02-03T10:00:35;4.50;;;1.90;;
23288;SDS011;11813;50.834;4.280;2023-02-03T10:03:11;6.27;;;1.70;;
23288;SDS011;11813;50.834;4.280;2023-02-03T10:22:36;7.73;;;2.50;;
23288;SDS011;11813;50.834;4.280;2023-02-03T10:25:15;3.27;;;1.93;;
23288;SDS011;11813;50.834;4.280;2023-02-03T10:27:42;4.17;;;2.07;;
23288;SDS011;11813;50.834;4.280;2023-02-03T10:30:19;3.80;;;2.00;;
23288;SDS011;11813;50.834;4.280;2023-02-03T10:35:20;4.40;;;2.50;;
23288;SDS011;11813;50.834;4.280;2023-02-03T10:37:53;8.23;;;2.40;;
23288;SDS011;11813;50.834;4.280;2023-02-03T10:40:23;9.63;;;3.33;;
23288;SDS011;11813;50.834;4.280;2023-02-03T10:42:50;3.97;;;2.13;;
23288;SDS011;11813;50.834;4.280;2023-02-03T10:45:36;3.97;;;2.33;;
23288;SDS011;11813;50.834;4.280;2023-02-03T10:48:03;6.03;;;3.27;;
23288;SDS011;11813;50.834;4.280;2023-02-03T10:50:31;8.47;;;2.93;;
23288;SDS011;11813;50.834;4.280;2023-02-03T10:53:18;9.63;;;2.87;;
23288;SDS011;11813;50.834;4.280;2023-02-03T10:55:47;5.63;;;2.50;;
23288;SDS011;11813;50.834;4.280;2023-02-03T10:58:18;5.63;;;2.70;;
23288;SDS011;11813;50.834;4.280;2023-02-03T11:00:53;8.83;;;2.70;;
23288;SDS011;11813;50.834;4.280;2023-02-03T11:03:25;3.93;;;2.17;;
23288;SDS011;11813;50.834;4.280;2023-02-03T11:06:03;8.47;;;2.83;;
23288;SDS011;11813;50.834;4.280;2023-02-03T11:08:31;6.33;;;2.37;;
23288;SDS011;11813;50.834;4.280;2023-02-03T11:11:03;7.97;;;2.77;;
23288;SDS011;11813;50.834;4.280;2023-02-03T11:13:30;4.33;;;2.43;;
23288;SDS011;11813;50.834;4.280;2023-02-03T11:15:57;7.30;;;3.53;;
23288;SDS011;11813;50.834;4.280;2023-02-03T11:18:31;4.47;;;2.47;;
23288;SDS011;11813;50.834;4.280;2023-02-03T11:21:12;7.07;;;2.80;;
23288;SDS011;11813;50.834;4.280;2023-02-03T11:23:49;7.80;;;2.50;;
23288;SDS011;11813;50.834;4.280;2023-02-03T11:26:17;5.57;;;2.30;;
23288;SDS011;11813;50.834;4.280;2023-02-03T11:28:46;10.33;;;3.23;;
23288;SDS011;11813;50.834;4.280;2023-02-03T11:31:18;6.90;;;2.47;;
23288;SDS011;11813;50.834;4.280;2023-02-03T11:34:02;5.47;;;2.57;;
23288;SDS011;11813;50.834;4.280;2023-02-03T11:36:39;5.20;;;2.73;;
23288;SDS011;11813;50.834;4.280;2023-02-03T11:39:09;6.67;;;2.43;;
23288;SDS011;11813;50.834;4.280;2023-02-03T11:41:40;6.63;;;2.77;;
23288;SDS011;11813;50.834;4.280;2023-02-03T11:44:09;5.90;;;2.50;;
23288;SDS011;11813;50.834;4.280;2023-02-03T11:46:46;6.90;;;3.20;;
23288;SDS011;11813;50.834;4.280;2023-02-03T11:49:28;4.83;;;2.60;;
23288;SDS011;11813;50.834;4.280;2023-02-03T11:52:02;6.93;;;2.43;;
23288;SDS011;11813;50.834;4.280;2023-02-03T11:57:15;5.53;;;2.90;;
23288;SDS011;11813;50.834;4.280;2023-02-03T12:00:02;4.80;;;3.00;;
23288;SDS011;11813;50.834;4.280;2023-02-03T12:17:39;5.17;;;2.83;;
23288;SDS011;11813;50.834;4.280;2023-02-03T12:21:14;4.10;;;2.77;;
23288;SDS011;11813;50.834;4.280;2023-02-03T12:29:29;6.20;;;2.20;;
23288;SDS011;11813;50.834;4.280;2023-02-03T12:32:06;9.47;;;3.83;;
23288;SDS011;11813;50.834;4.280;2023-02-03T12:38:04;6.77;;;3.60;;
23288;SDS011;11813;50.834;4.280;2023-02-03T12:40:42;7.53;;;3.37;;
23288;SDS011;11813;50.834;4.280;2023-02-03T12:45:41;7.23;;;3.83;;
23288;SDS011;11813;50.834;4.280;2023-02-03T12:48:17;5.30;;;3.50;;
23288;SDS011;11813;50.834;4.280;2023-02-03T12:50:49;7.50;;;4.30;;
23288;SDS011;11813;50.834;4.280;2023-02-03T12:53:24;9.23;;;3.80;;
23288;SDS011;11813;50.834;4.280;2023-02-03T12:56:02;4.47;;;3.70;;
23288;SDS011;11813;50.834;4.280;2023-02-03T12:58:39;6.67;;;3.70;;
23288;SDS011;11813;50.834;4.280;2023-02-03T13:01:12;4.53;;;3.20;;
23288;SDS011;11813;50.834;4.280;2023-02-03T13:03:50;11.87;;;4.20;;
23288;SDS011;11813;50.834;4.280;2023-02-03T13:14:32;8.27;;;3.83;;
23288;SDS011;11813;50.834;4.280;2023-02-03T13:17:06;9.80;;;4.20;;
23288;SDS011;11813;50.834;4.280;2023-02-03T13:19:57;6.27;;;4.00;;
23288;SDS011;11813;50.834;4.280;2023-02-03T13:22:26;8.33;;;4.30;;
23288;SDS011;11813;50.834;4.280;2023-02-03T13:24:54;7.30;;;4.13;;
23288;SDS011;11813;50.834;4.280;2023-02-03T13:30:17;7.43;;;4.57;;
23288;SDS011;11813;50.834;4.280;2023-02-03T13:36:10;6.00;;;4.03;;
23288;SDS011;11813;50.834;4.280;2023-02-03T13:41:29;6.27;;;4.63;;
23288;SDS011;11813;50.834;4.280;2023-02-03T13:44:02;7.10;;;4.70;;
23288;SDS011;11813;50.834;4.280;2023-02-03T13:46:30;8.97;;;5.00;;
23288;SDS011;11813;50.834;4.280;2023-02-03T13:48:58;5.93;;;5.30;;
23288;SDS011;11813;50.834;4.280;2023-02-03T13:51:31;8.50;;;5.33;;
23288;SDS011;11813;50.834;4.280;2023-02-03T13:54:00;10.50;;;5.30;;
23288;SDS011;11813;50.834;4.280;2023-02-03T13:56:29;7.43;;;5.17;;
23288;SDS011;11813;50.834;4.280;2023-02-03T14:01:45;9.63;;;5.00;;
23288;SDS011;11813;50.834;4.280;2023-02-03T14:06:53;11.13;;;4.33;;
23288;SDS011;11813;50.834;4.280;2023-02-03T14:09:44;7.23;;;4.37;;
23288;SDS011;11813;50.834;4.280;2023-02-03T14:12:17;8.50;;;5.40;;
23288;SDS011;11813;50.834;4.280;2023-02-03T14:14:58;9.17;;;4.80;;
23288;SDS011;11813;50.834;4.280;2023-02-03T14:20:00;6.90;;;3.80;;
23288;SDS011;11813;50.834;4.280;2023-02-03T14:22:28;8.30;;;4.87;;
23288;SDS011;11813;50.834;4.280;2023-02-03T14:24:55;8.37;;;4.40;;
23288;SDS011;11813;50.834;4.280;2023-02-03T14:27:27;7.03;;;4.23;;
23288;SDS011;11813;50.834;4.280;2023-02-03T14:30:03;5.90;;;4.10;;
23288;SDS011;11813;50.834;4.280;2023-02-03T14:32:50;5.73;;;3.73;;
23288;SDS011;11813;50.834;4.280;2023-02-03T14:35:20;8.57;;;3.80;;
23288;SDS011;11813;50.834;4.280;2023-02-03T14:37:53;6.93;;;3.73;;
23288;SDS011;11813;50.834;4.280;2023-02-03T14:46:14;8.83;;;2.73;;
23288;SDS011;11813;50.834;4.280;2023-02-03T14:57:15;4.47;;;2.53;;
23288;SDS011;11813;50.834;4.280;2023-02-03T14:59:48;7.40;;;2.40;;
23288;SDS011;11813;50.834;4.280;2023-02-03T15:02:24;4.00;;;2.30;;
23288;SDS011;11813;50.834;4.280;2023-02-03T15:07:39;3.53;;;2.50;;
23288;SDS011;11813;50.834;4.280;2023-02-03T15:10:23;3.50;;;2.10;;
23288;SDS011;11813;50.834;4.280;2023-02-03T15:12:55;6.03;;;2.57;;
23288;SDS011;11813;50.834;4.280;2023-02-03T15:15:29;3.63;;;1.93;;
23288;SDS011;11813;50.834;4.280;2023-02-03T15:17:57;3.60;;;2.57;;
23288;SDS011;11813;50.834;4.280;2023-02-03T15:20:26;5.10;;;2.33;;
23288;SDS011;11813;50.834;4.280;2023-02-03T15:23:00;3.00;;;1.70;;
23288;SDS011;11813;50.834;4.280;2023-02-03T15:25:27;6.27;;;2.30;;
23288;SDS011;11813;50.834;4.280;2023-02-03T15:28:09;3.83;;;2.20;;
23288;SDS011;11813;50.834;4.280;2023-02-03T15:30:44;5.93;;;2.20;;
23288;SDS011;11813;50.834;4.280;2023-02-03T15:33:13;4.40;;;2.20;;
23288;SDS011;11813;50.834;4.280;2023-02-03T15:35:42;6.53;;;2.27;;
23288;SDS011;11813;50.834;4.280;2023-02-03T15:38:20;6.80;;;2.40;;
23288;SDS011;11813;50.834;4.280;2023-02-03T15:40:52;3.03;;;1.90;;
23288;SDS011;11813;50.834;4.280;2023-02-03T15:43:40;5.77;;;2.30;;
23288;SDS011;11813;50.834;4.280;2023-02-03T15:46:31;8.30;;;2.50;;
23288;SDS011;11813;50.834;4.280;2023-02-03T15:51:21;10.03;;;3.00;;
23288;SDS011;11813;50.834;4.280;2023-02-03T15:56:37;5.27;;;2.30;;
23288;SDS011;11813;50.834;4.280;2023-02-03T15:59:20;4.37;;;2.40;;
23288;SDS011;11813;50.834;4.280;2023-02-03T16:01:59;10.93;;;2.97;;
23288;SDS011;11813;50.834;4.280;2023-02-03T16:04:26;5.03;;;2.50;;
23288;SDS011;11813;50.834;4.280;2023-02-03T16:06:53;6.87;;;3.10;;
23288;SDS011;11813;50.834;4.280;2023-02-03T16:09:24;4.73;;;2.93;;
23288;SDS011;11813;50.834;4.280;2023-02-03T16:12:12;7.63;;;2.97;;
23288;SDS011;11813;50.834;4.280;2023-02-03T16:14:41;4.33;;;2.37;;
23288;SDS011;11813;50.834;4.280;2023-02-03T16:17:40;4.27;;;2.37;;
23288;SDS011;11813;50.834;4.280;2023-02-03T16:23:18;4.47;;;2.50;;
23288;SDS011;11813;50.834;4.280;2023-02-03T16:25:26;5.43;;;2.80;;
23288;SDS011;11813;50.834;4.280;2023-02-03T16:28:12;6.90;;;2.33;;
23288;SDS011;11813;50.834;4.280;2023-02-03T16:31:00;6.70;;;3.13;;
23288;SDS011;11813;50.834;4.280;2023-02-03T16:33:53;6.43;;;2.87;;
23288;SDS011;11813;50.834;4.280;2023-02-03T16:36:41;3.57;;;2.57;;
23288;SDS011;11813;50.834;4.280;2023-02-03T16:39:26;6.10;;;3.00;;
23288;SDS011;11813;50.834;4.280;2023-02-03T16:42:17;6.37;;;2.50;;
23288;SDS011;11813;50.834;4.280;2023-02-03T16:45:03;4.47;;;2.67;;
23288;SDS011;11813;50.834;4.280;2023-02-03T16:48:01;6.00;;;2.40;;
23288;SDS011;11813;50.834;4.280;2023-02-03T16:50:46;5.33;;;3.07;;
23288;SDS011;11813;50.834;4.280;2023-02-03T16:53:21;5.43;;;2.83;;
23288;SDS011;11813;50.834;4.280;2023-02-03T16:55:49;5.60;;;3.20;;
23288;SDS011;11813;50.834;4.280;2023-02-03T16:58:16;4.47;;;3.10;;
23288;SDS011;11813;50.834;4.280;2023-02-03T17:00:43;5.17;;;2.90;;
23288;SDS011;11813;50.834;4.280;2023-02-03T17:03:13;13.23;;;3.70;;
23288;SDS011;11813;50.834;4.280;2023-02-03T17:05:44;6.23;;;3.00;;
23288;SDS011;11813;50.834;4.280;2023-02-03T17:08:10;4.77;;;2.87;;
23288;SDS011;11813;50.834;4.280;2023-02-03T17:10:37;5.07;;;2.90;;
23288;SDS011;11813;50.834;4.280;2023-02-03T17:13:04;4.70;;;3.07;;
23288;SDS011;11813;50.834;4.280;2023-02-03T17:15:30;7.47;;;3.20;;
23288;SDS011;11813;50.834;4.280;2023-02-03T17:17:58;6.33;;;3.20;;
23288;SDS011;11813;50.834;4.280;2023-02-03T17:20:24;6.33;;;3.43;;
23288;SDS011;11813;50.834;4.280;2023-02-03T17:22:50;4.17;;;3.20;;
23288;SDS011;11813;50.834;4.280;2023-02-03T17:25:18;6.13;;;3.00;;